sensor_id;sensor_type;location;lat;lon;timestamp;temperature;humidity
24638;DHT22;12773;50.162;8.548;2022-08-06T00:02:20;19.40;99.90
24638;DHT22;12773;50.162;8.548;2022-08-06T00:05:11;19.50;99.90
24638;DHT22;12773;50.162;8.548;2022-08-06T00:08:00;19.50;99.90
24638;DHT22;12773;50.162;8.548;2022-08-06T00:10:47;19.50;99.90
24638;DHT22;12773;50.162;8.548;2022-08-06T00:13:35;19.50;99.90
24638;DHT22;12773;50.162;8.548;2022-08-06T00:16:24;19.50;99.90
24638;DHT22;12773;50.162;8.548;2022-08-06T00:19:13;19.40;99.90
24638;DHT22;12773;50.162;8.548;2022-08-06T00:22:02;19.50;99.90
24638;DHT22;12773;50.162;8.548;2022-08-06T00:24:50;19.40;99.50
24638;DHT22;12773;50.162;8.548;2022-08-06T00:27:38;19.40;99.30
24638;DHT22;12773;50.162;8.548;2022-08-06T00:30:27;19.30;99.50
24638;DHT22;12773;50.162;8.548;2022-08-06T00:33:16;19.30;99.50
24638;DHT22;12773;50.162;8.548;2022-08-06T00:36:04;19.30;99.70
24638;DHT22;12773;50.162;8.548;2022-08-06T00:38:52;19.40;99.90
24638;DHT22;12773;50.162;8.548;2022-08-06T00:41:40;19.40;99.90
24638;DHT22;12773;50.162;8.548;2022-08-06T00:44:28;19.40;99.90
24638;DHT22;12773;50.162;8.548;2022-08-06T00:47:17;19.40;99.90
24638;DHT22;12773;50.162;8.548;2022-08-06T00:50:06;19.40;99.90
24638;DHT22;12773;50.162;8.548;2022-08-06T00:52:54;19.40;99.90
24638;DHT22;12773;50.162;8.548;2022-08-06T00:55:42;19.20;99.90
24638;DHT22;12773;50.162;8.548;2022-08-06T00:58:31;19.10;99.90
24638;DHT22;12773;50.162;8.548;2022-08-06T01:01:20;19.10;99.90
24638;DHT22;12773;50.162;8.548;2022-08-06T01:04:07;19.00;99.90
24638;DHT22;12773;50.162;8.548;2022-08-06T01:06:56;19.00;99.90
24638;DHT22;12773;50.162;8.548;2022-08-06T01:09:44;18.90;99.90
24638;DHT22;12773;50.162;8.548;2022-08-06T01:12:33;18.90;99.90
24638;DHT22;12773;50.162;8.548;2022-08-06T01:15:21;18.80;99.90
24638;DHT22;12773;50.162;8.548;2022-08-06T01:18:23;18.70;99.90
24638;DHT22;12773;50.162;8.548;2022-08-06T01:28:04;18.60;99.90
24638;DHT22;12773;50.162;8.548;2022-08-06T01:30:54;18.50;99.90
24638;DHT22;12773;50.162;8.548;2022-08-06T01:33:50;18.40;99.90
24638;DHT22;12773;50.162;8.548;2022-08-06T01:36:47;18.30;99.90
24638;DHT22;12773;50.162;8.548;2022-08-06T01:39:37;18.30;99.90
24638;DHT22;12773;50.162;8.548;2022-08-06T01:42:29;18.20;99.90
24638;DHT22;12773;50.162;8.548;2022-08-06T01:45:21;18.20;99.90
24638;DHT22;12773;50.162;8.548;2022-08-06T01:48:13;18.20;99.90
24638;DHT22;12773;50.162;8.548;2022-08-06T01:51:04;18.00;99.90
24638;DHT22;12773;50.162;8.548;2022-08-06T01:53:55;18.00;99.90
24638;DHT22;12773;50.162;8.548;2022-08-06T01:56:48;17.90;99.90
24638;DHT22;12773;50.162;8.548;2022-08-06T01:59:39;17.90;99.90
24638;DHT22;12773;50.162;8.548;2022-08-06T02:02:29;17.90;99.90
24638;DHT22;12773;50.162;8.548;2022-08-06T02:05:19;17.80;99.90
24638;DHT22;12773;50.162;8.548;2022-08-06T02:08:09;17.90;99.90
24638;DHT22;12773;50.162;8.548;2022-08-06T02:11:00;17.80;99.90
24638;DHT22;12773;50.162;8.548;2022-08-06T02:13:51;17.80;99.90
24638;DHT22;12773;50.162;8.548;2022-08-06T02:16:41;17.70;99.90
24638;DHT22;12773;50.162;8.548;2022-08-06T02:19:29;17.60;99.90
24638;DHT22;12773;50.162;8.548;2022-08-06T02:22:21;17.60;99.90
24638;DHT22;12773;50.162;8.548;2022-08-06T02:25:13;17.60;99.90
24638;DHT22;12773;50.162;8.548;2022-08-06T02:28:03;17.60;99.90
24638;DHT22;12773;50.162;8.548;2022-08-06T02:30:56;17.60;99.90
24638;DHT22;12773;50.162;8.548;2022-08-06T02:33:44;17.50;99.90
24638;DHT22;12773;50.162;8.548;2022-08-06T02:39:35;17.50;99.90
24638;DHT22;12773;50.162;8.548;2022-08-06T02:42:36;17.50;99.90
24638;DHT22;12773;50.162;8.548;2022-08-06T02:45:29;17.40;99.90
24638;DHT22;12773;50.162;8.548;2022-08-06T02:54:21;17.40;99.90
24638;DHT22;12773;50.162;8.548;2022-08-06T02:57:05;17.30;99.90
24638;DHT22;12773;50.162;8.548;2022-08-06T02:59:56;17.30;99.90
24638;DHT22;12773;50.162;8.548;2022-08-06T03:02:45;17.30;99.90
24638;DHT22;12773;50.162;8.548;2022-08-06T03:05:35;17.30;99.90
24638;DHT22;12773;50.162;8.548;2022-08-06T03:08:26;17.30;99.90
24638;DHT22;12773;50.162;8.548;2022-08-06T03:11:16;17.30;99.90
24638;DHT22;12773;50.162;8.548;2022-08-06T03:14:08;17.20;99.90
24638;DHT22;12773;50.162;8.548;2022-08-06T03:16:58;17.20;99.90
24638;DHT22;12773;50.162;8.548;2022-08-06T03:19:45;17.20;99.90
24638;DHT22;12773;50.162;8.548;2022-08-06T03:22:36;17.20;99.90
24638;DHT22;12773;50.162;8.548;2022-08-06T03:25:27;17.20;99.90
24638;DHT22;12773;50.162;8.548;2022-08-06T03:28:16;17.10;99.90
24638;DHT22;12773;50.162;8.548;2022-08-06T03:31:07;17.10;99.90
24638;DHT22;12773;50.162;8.548;2022-08-06T03:33:54;17.00;99.90
24638;DHT22;12773;50.162;8.548;2022-08-06T03:36:42;17.00;99.90
24638;DHT22;12773;50.162;8.548;2022-08-06T03:39:31;17.00;99.90
24638;DHT22;12773;50.162;8.548;2022-08-06T03:42:19;17.00;99.90
24638;DHT22;12773;50.162;8.548;2022-08-06T03:45:08;16.90;99.90
24638;DHT22;12773;50.162;8.548;2022-08-06T03:47:59;16.80;99.90
24638;DHT22;12773;50.162;8.548;2022-08-06T03:50:50;16.80;99.90
24638;DHT22;12773;50.162;8.548;2022-08-06T03:53:42;16.80;99.90
24638;DHT22;12773;50.162;8.548;2022-08-06T03:56:32;16.80;99.90
24638;DHT22;12773;50.162;8.548;2022-08-06T03:59:21;16.80;99.90
24638;DHT22;12773;50.162;8.548;2022-08-06T04:02:13;16.70;99.90
24638;DHT22;12773;50.162;8.548;2022-08-06T04:05:03;16.70;99.90
24638;DHT22;12773;50.162;8.548;2022-08-06T04:07:55;16.70;99.90
24638;DHT22;12773;50.162;8.548;2022-08-06T04:10:44;16.70;99.90
24638;DHT22;12773;50.162;8.548;2022-08-06T04:13:35;16.60;99.90
24638;DHT22;12773;50.162;8.548;2022-08-06T04:16:24;16.60;99.90
24638;DHT22;12773;50.162;8.548;2022-08-06T04:19:14;16.60;99.90
24638;DHT22;12773;50.162;8.548;2022-08-06T04:22:06;16.60;99.90
24638;DHT22;12773;50.162;8.548;2022-08-06T04:24:55;16.60;99.90
24638;DHT22;12773;50.162;8.548;2022-08-06T04:27:43;16.70;99.90
24638;DHT22;12773;50.162;8.548;2022-08-06T04:30:34;16.70;99.90
24638;DHT22;12773;50.162;8.548;2022-08-06T04:33:25;16.70;99.90
24638;DHT22;12773;50.162;8.548;2022-08-06T04:36:15;16.70;99.90
24638;DHT22;12773;50.162;8.548;2022-08-06T04:39:04;16.70;99.90
24638;DHT22;12773;50.162;8.548;2022-08-06T04:41:54;16.70;99.90
24638;DHT22;12773;50.162;8.548;2022-08-06T04:44:43;16.70;99.90
24638;DHT22;12773;50.162;8.548;2022-08-06T04:47:31;16.70;99.90
24638;DHT22;12773;50.162;8.548;2022-08-06T04:50:21;16.70;99.90
24638;DHT22;12773;50.162;8.548;2022-08-06T04:53:11;16.70;99.90
24638;DHT22;12773;50.162;8.548;2022-08-06T04:56:00;16.70;99.90
24638;DHT22;12773;50.162;8.548;2022-08-06T04:58:49;16.60;99.90
24638;DHT22;12773;50.162;8.548;2022-08-06T05:01:38;16.70;99.90
24638;DHT22;12773;50.162;8.548;2022-08-06T05:04:29;16.70;99.90
24638;DHT22;12773;50.162;8.548;2022-08-06T05:07:20;16.70;99.90
24638;DHT22;12773;50.162;8.548;2022-08-06T05:10:08;16.80;99.90
24638;DHT22;12773;50.162;8.548;2022-08-06T05:12:56;16.80;99.90
24638;DHT22;12773;50.162;8.548;2022-08-06T05:15:48;16.80;99.90
24638;DHT22;12773;50.162;8.548;2022-08-06T05:18:44;16.80;99.90
24638;DHT22;12773;50.162;8.548;2022-08-06T05:21:36;17.00;99.90
24638;DHT22;12773;50.162;8.548;2022-08-06T05:24:27;17.10;99.90
24638;DHT22;12773;50.162;8.548;2022-08-06T05:27:16;17.20;99.90
24638;DHT22;12773;50.162;8.548;2022-08-06T05:30:04;17.30;99.90
24638;DHT22;12773;50.162;8.548;2022-08-06T05:32:54;17.40;99.90
24638;DHT22;12773;50.162;8.548;2022-08-06T05:35:42;17.50;99.90
24638;DHT22;12773;50.162;8.548;2022-08-06T05:38:33;17.60;99.90
24638;DHT22;12773;50.162;8.548;2022-08-06T05:41:21;17.80;99.90
24638;DHT22;12773;50.162;8.548;2022-08-06T05:44:10;17.80;99.90
24638;DHT22;12773;50.162;8.548;2022-08-06T05:47:05;17.80;99.90
24638;DHT22;12773;50.162;8.548;2022-08-06T05:50:05;17.90;99.90
24638;DHT22;12773;50.162;8.548;2022-08-06T05:55:56;17.90;99.90
24638;DHT22;12773;50.162;8.548;2022-08-06T05:58:44;18.00;99.90
24638;DHT22;12773;50.162;8.548;2022-08-06T06:01:30;18.10;99.90
24638;DHT22;12773;50.162;8.548;2022-08-06T06:04:19;18.20;99.90
24638;DHT22;12773;50.162;8.548;2022-08-06T06:07:27;18.30;99.90
24638;DHT22;12773;50.162;8.548;2022-08-06T06:10:17;18.20;99.90
24638;DHT22;12773;50.162;8.548;2022-08-06T06:13:06;18.30;99.90
24638;DHT22;12773;50.162;8.548;2022-08-06T06:19:29;18.50;99.90
24638;DHT22;12773;50.162;8.548;2022-08-06T06:22:25;18.50;99.90
24638;DHT22;12773;50.162;8.548;2022-08-06T06:25:15;18.60;99.90
24638;DHT22;12773;50.162;8.548;2022-08-06T06:28:22;18.60;99.90
24638;DHT22;12773;50.162;8.548;2022-08-06T06:37:44;18.60;99.90
24638;DHT22;12773;50.162;8.548;2022-08-06T06:47:23;18.70;99.90
24638;DHT22;12773;50.162;8.548;2022-08-06T06:50:21;18.70;99.90
24638;DHT22;12773;50.162;8.548;2022-08-06T06:53:05;18.80;99.90
24638;DHT22;12773;50.162;8.548;2022-08-06T06:55:56;18.90;99.90
24638;DHT22;12773;50.162;8.548;2022-08-06T06:58:50;18.90;99.90
24638;DHT22;12773;50.162;8.548;2022-08-06T07:01:41;19.10;99.90
24638;DHT22;12773;50.162;8.548;2022-08-06T07:04:32;19.20;99.90
24638;DHT22;12773;50.162;8.548;2022-08-06T07:07:23;19.20;99.90
24638;DHT22;12773;50.162;8.548;2022-08-06T07:10:12;19.30;99.90
24638;DHT22;12773;50.162;8.548;2022-08-06T07:13:02;19.30;99.90
24638;DHT22;12773;50.162;8.548;2022-08-06T07:15:51;19.40;99.90
24638;DHT22;12773;50.162;8.548;2022-08-06T07:18:41;19.40;99.90
24638;DHT22;12773;50.162;8.548;2022-08-06T07:21:31;19.50;99.90
24638;DHT22;12773;50.162;8.548;2022-08-06T07:24:22;19.60;99.90
24638;DHT22;12773;50.162;8.548;2022-08-06T07:27:12;19.60;99.90
24638;DHT22;12773;50.162;8.548;2022-08-06T07:30:02;19.60;99.90
24638;DHT22;12773;50.162;8.548;2022-08-06T07:32:52;19.70;99.90
24638;DHT22;12773;50.162;8.548;2022-08-06T07:35:41;19.80;99.90
24638;DHT22;12773;50.162;8.548;2022-08-06T07:38:29;19.80;99.90
24638;DHT22;12773;50.162;8.548;2022-08-06T07:41:20;19.90;99.90
24638;DHT22;12773;50.162;8.548;2022-08-06T07:44:11;20.10;99.90
24638;DHT22;12773;50.162;8.548;2022-08-06T07:47:03;20.30;99.90
24638;DHT22;12773;50.162;8.548;2022-08-06T07:49:57;20.50;99.90
24638;DHT22;12773;50.162;8.548;2022-08-06T07:52:47;20.30;99.90
24638;DHT22;12773;50.162;8.548;2022-08-06T07:55:36;20.40;99.90
24638;DHT22;12773;50.162;8.548;2022-08-06T07:58:26;20.60;99.00
24638;DHT22;12773;50.162;8.548;2022-08-06T08:01:15;20.60;99.60
24638;DHT22;12773;50.162;8.548;2022-08-06T08:04:05;20.80;99.90
24638;DHT22;12773;50.162;8.548;2022-08-06T08:07:13;21.00;99.40
24638;DHT22;12773;50.162;8.548;2022-08-06T08:10:02;21.00;99.10
24638;DHT22;12773;50.162;8.548;2022-08-06T08:12:50;21.10;99.50
24638;DHT22;12773;50.162;8.548;2022-08-06T08:15:38;21.30;98.70
24638;DHT22;12773;50.162;8.548;2022-08-06T08:18:29;21.80;98.00
24638;DHT22;12773;50.162;8.548;2022-08-06T08:21:18;21.90;97.70
24638;DHT22;12773;50.162;8.548;2022-08-06T08:24:08;21.90;97.50
24638;DHT22;12773;50.162;8.548;2022-08-06T08:26:56;21.70;97.10
24638;DHT22;12773;50.162;8.548;2022-08-06T08:29:44;21.90;97.80
24638;DHT22;12773;50.162;8.548;2022-08-06T08:32:33;22.30;97.60
24638;DHT22;12773;50.162;8.548;2022-08-06T08:35:20;22.20;96.80
24638;DHT22;12773;50.162;8.548;2022-08-06T08:38:08;22.40;96.40
24638;DHT22;12773;50.162;8.548;2022-08-06T08:40:59;22.40;97.00
24638;DHT22;12773;50.162;8.548;2022-08-06T08:43:48;22.50;95.30
24638;DHT22;12773;50.162;8.548;2022-08-06T08:46:40;22.20;95.10
24638;DHT22;12773;50.162;8.548;2022-08-06T08:52:31;21.70;95.30
24638;DHT22;12773;50.162;8.548;2022-08-06T08:55:20;21.50;95.30
24638;DHT22;12773;50.162;8.548;2022-08-06T08:58:12;21.10;95.10
24638;DHT22;12773;50.162;8.548;2022-08-06T09:01:07;20.90;95.50
24638;DHT22;12773;50.162;8.548;2022-08-06T09:03:56;20.90;96.20
24638;DHT22;12773;50.162;8.548;2022-08-06T09:06:46;20.90;95.50
24638;DHT22;12773;50.162;8.548;2022-08-06T09:09:36;20.80;95.70
24638;DHT22;12773;50.162;8.548;2022-08-06T09:12:25;21.00;94.10
24638;DHT22;12773;50.162;8.548;2022-08-06T09:15:17;21.10;93.40
24638;DHT22;12773;50.162;8.548;2022-08-06T09:18:05;21.40;93.50
24638;DHT22;12773;50.162;8.548;2022-08-06T09:20:54;21.40;92.00
24638;DHT22;12773;50.162;8.548;2022-08-06T09:23:42;21.50;92.40
24638;DHT22;12773;50.162;8.548;2022-08-06T09:26:31;21.50;92.00
24638;DHT22;12773;50.162;8.548;2022-08-06T09:29:22;21.60;92.40
24638;DHT22;12773;50.162;8.548;2022-08-06T09:32:11;21.80;91.90
24638;DHT22;12773;50.162;8.548;2022-08-06T09:35:00;22.00;92.30
24638;DHT22;12773;50.162;8.548;2022-08-06T09:37:59;21.90;92.30
24638;DHT22;12773;50.162;8.548;2022-08-06T09:40:41;22.40;91.80
24638;DHT22;12773;50.162;8.548;2022-08-06T09:43:30;22.50;90.80
24638;DHT22;12773;50.162;8.548;2022-08-06T09:49:42;22.70;90.30
24638;DHT22;12773;50.162;8.548;2022-08-06T09:52:21;23.10;89.50
24638;DHT22;12773;50.162;8.548;2022-08-06T09:55:12;23.00;89.60
24638;DHT22;12773;50.162;8.548;2022-08-06T09:58:01;22.90;89.00
24638;DHT22;12773;50.162;8.548;2022-08-06T10:00:48;22.60;88.90
24638;DHT22;12773;50.162;8.548;2022-08-06T10:03:39;22.60;88.50
24638;DHT22;12773;50.162;8.548;2022-08-06T10:06:28;22.90;87.10
24638;DHT22;12773;50.162;8.548;2022-08-06T10:09:15;23.10;85.40
24638;DHT22;12773;50.162;8.548;2022-08-06T10:12:19;23.00;88.30
24638;DHT22;12773;50.162;8.548;2022-08-06T10:15:08;23.30;86.60
24638;DHT22;12773;50.162;8.548;2022-08-06T10:17:57;23.60;87.90
24638;DHT22;12773;50.162;8.548;2022-08-06T10:21:01;23.40;80.90
24638;DHT22;12773;50.162;8.548;2022-08-06T10:23:53;23.40;80.00
24638;DHT22;12773;50.162;8.548;2022-08-06T10:26:40;23.30;79.50
24638;DHT22;12773;50.162;8.548;2022-08-06T10:29:30;23.50;77.00
24638;DHT22;12773;50.162;8.548;2022-08-06T10:32:31;23.70;78.20
24638;DHT22;12773;50.162;8.548;2022-08-06T10:35:21;23.50;78.30
24638;DHT22;12773;50.162;8.548;2022-08-06T10:38:14;23.50;76.80
24638;DHT22;12773;50.162;8.548;2022-08-06T10:41:08;23.60;77.50
24638;DHT22;12773;50.162;8.548;2022-08-06T10:44:17;23.80;75.50
24638;DHT22;12773;50.162;8.548;2022-08-06T10:47:05;23.90;75.40
24638;DHT22;12773;50.162;8.548;2022-08-06T10:49:54;24.20;78.30
24638;DHT22;12773;50.162;8.548;2022-08-06T10:52:44;24.60;73.40
24638;DHT22;12773;50.162;8.548;2022-08-06T10:55:32;24.30;74.80
24638;DHT22;12773;50.162;8.548;2022-08-06T10:58:22;24.80;75.60
24638;DHT22;12773;50.162;8.548;2022-08-06T11:01:32;25.10;73.40
24638;DHT22;12773;50.162;8.548;2022-08-06T11:04:38;25.20;73.00
24638;DHT22;12773;50.162;8.548;2022-08-06T11:14:08;25.00;67.10
24638;DHT22;12773;50.162;8.548;2022-08-06T11:16:58;24.50;69.70
24638;DHT22;12773;50.162;8.548;2022-08-06T11:19:48;24.70;70.70
24638;DHT22;12773;50.162;8.548;2022-08-06T11:22:39;24.80;68.30
24638;DHT22;12773;50.162;8.548;2022-08-06T11:25:51;24.80;67.10
24638;DHT22;12773;50.162;8.548;2022-08-06T11:28:56;24.90;66.80
24638;DHT22;12773;50.162;8.548;2022-08-06T11:31:38;25.00;65.60
24638;DHT22;12773;50.162;8.548;2022-08-06T11:34:39;25.40;64.90
24638;DHT22;12773;50.162;8.548;2022-08-06T11:37:43;25.60;63.50
24638;DHT22;12773;50.162;8.548;2022-08-06T11:46:42;26.20;59.50
24638;DHT22;12773;50.162;8.548;2022-08-06T11:49:44;26.20;60.70
24638;DHT22;12773;50.162;8.548;2022-08-06T11:55:26;27.00;59.80
24638;DHT22;12773;50.162;8.548;2022-08-06T11:58:16;27.50;57.10
24638;DHT22;12773;50.162;8.548;2022-08-06T12:01:08;27.60;55.20
24638;DHT22;12773;50.162;8.548;2022-08-06T12:03:57;27.00;54.00
24638;DHT22;12773;50.162;8.548;2022-08-06T12:06:46;26.90;55.50
24638;DHT22;12773;50.162;8.548;2022-08-06T12:09:36;27.00;57.60
24638;DHT22;12773;50.162;8.548;2022-08-06T12:18:12;26.60;54.00
24638;DHT22;12773;50.162;8.548;2022-08-06T12:21:08;26.50;53.70
24638;DHT22;12773;50.162;8.548;2022-08-06T12:23:53;26.20;53.60
24638;DHT22;12773;50.162;8.548;2022-08-06T12:26:43;26.30;53.70
24638;DHT22;12773;50.162;8.548;2022-08-06T12:29:31;27.00;54.60
24638;DHT22;12773;50.162;8.548;2022-08-06T12:32:34;27.30;52.90
24638;DHT22;12773;50.162;8.548;2022-08-06T12:35:24;27.20;52.50
24638;DHT22;12773;50.162;8.548;2022-08-06T12:38:11;26.90;51.30
24638;DHT22;12773;50.162;8.548;2022-08-06T12:41:01;26.60;52.70
24638;DHT22;12773;50.162;8.548;2022-08-06T12:43:52;26.50;53.60
24638;DHT22;12773;50.162;8.548;2022-08-06T12:46:41;26.60;54.50
24638;DHT22;12773;50.162;8.548;2022-08-06T12:49:30;26.60;55.70
24638;DHT22;12773;50.162;8.548;2022-08-06T12:52:21;26.60;54.90
24638;DHT22;12773;50.162;8.548;2022-08-06T12:55:17;27.10;53.80
24638;DHT22;12773;50.162;8.548;2022-08-06T12:58:06;27.10;53.80
24638;DHT22;12773;50.162;8.548;2022-08-06T13:01:01;27.40;53.70
24638;DHT22;12773;50.162;8.548;2022-08-06T13:03:52;27.20;53.20
24638;DHT22;12773;50.162;8.548;2022-08-06T13:06:43;27.90;55.40
24638;DHT22;12773;50.162;8.548;2022-08-06T13:09:32;27.80;51.60
24638;DHT22;12773;50.162;8.548;2022-08-06T13:12:22;27.70;52.90
24638;DHT22;12773;50.162;8.548;2022-08-06T13:15:13;28.20;53.80
24638;DHT22;12773;50.162;8.548;2022-08-06T13:18:16;28.70;52.60
24638;DHT22;12773;50.162;8.548;2022-08-06T13:21:17;28.20;49.80
24638;DHT22;12773;50.162;8.548;2022-08-06T13:24:05;27.40;51.70
24638;DHT22;12773;50.162;8.548;2022-08-06T13:26:54;26.80;51.10
24638;DHT22;12773;50.162;8.548;2022-08-06T13:30:01;26.50;50.80
24638;DHT22;12773;50.162;8.548;2022-08-06T13:32:51;26.50;50.90
24638;DHT22;12773;50.162;8.548;2022-08-06T13:35:40;26.70;50.60
24638;DHT22;12773;50.162;8.548;2022-08-06T13:38:29;26.70;51.40
24638;DHT22;12773;50.162;8.548;2022-08-06T13:41:26;27.40;51.10
24638;DHT22;12773;50.162;8.548;2022-08-06T13:44:32;27.60;52.00
24638;DHT22;12773;50.162;8.548;2022-08-06T13:47:27;28.10;51.50
24638;DHT22;12773;50.162;8.548;2022-08-06T13:50:18;28.50;50.10
24638;DHT22;12773;50.162;8.548;2022-08-06T13:53:08;28.90;50.50
24638;DHT22;12773;50.162;8.548;2022-08-06T13:55:58;29.10;50.10
24638;DHT22;12773;50.162;8.548;2022-08-06T13:58:47;29.40;48.50
24638;DHT22;12773;50.162;8.548;2022-08-06T14:01:34;29.50;48.20
24638;DHT22;12773;50.162;8.548;2022-08-06T14:04:23;28.40;46.90
24638;DHT22;12773;50.162;8.548;2022-08-06T14:07:11;28.30;47.30
24638;DHT22;12773;50.162;8.548;2022-08-06T14:10:01;27.50;48.90
24638;DHT22;12773;50.162;8.548;2022-08-06T14:12:49;27.60;48.60
24638;DHT22;12773;50.162;8.548;2022-08-06T14:15:56;27.90;49.50
24638;DHT22;12773;50.162;8.548;2022-08-06T14:18:46;27.50;47.10
24638;DHT22;12773;50.162;8.548;2022-08-06T14:21:34;27.10;47.10
24638;DHT22;12773;50.162;8.548;2022-08-06T14:24:24;26.80;48.10
24638;DHT22;12773;50.162;8.548;2022-08-06T14:27:11;26.80;48.70
24638;DHT22;12773;50.162;8.548;2022-08-06T14:30:01;27.00;47.80
24638;DHT22;12773;50.162;8.548;2022-08-06T14:32:50;26.60;48.20
24638;DHT22;12773;50.162;8.548;2022-08-06T14:35:38;26.90;49.70
24638;DHT22;12773;50.162;8.548;2022-08-06T14:38:27;27.30;48.60
24638;DHT22;12773;50.162;8.548;2022-08-06T14:41:16;27.70;49.50
24638;DHT22;12773;50.162;8.548;2022-08-06T14:44:23;27.80;48.80
24638;DHT22;12773;50.162;8.548;2022-08-06T14:47:30;27.80;45.90
24638;DHT22;12773;50.162;8.548;2022-08-06T14:50:19;27.50;45.20
24638;DHT22;12773;50.162;8.548;2022-08-06T14:53:08;27.20;46.40
24638;DHT22;12773;50.162;8.548;2022-08-06T14:55:57;27.20;46.70
24638;DHT22;12773;50.162;8.548;2022-08-06T14:58:46;27.10;46.00
24638;DHT22;12773;50.162;8.548;2022-08-06T15:01:34;27.50;45.90
24638;DHT22;12773;50.162;8.548;2022-08-06T15:04:23;27.80;45.20
24638;DHT22;12773;50.162;8.548;2022-08-06T15:07:10;27.60;44.90
24638;DHT22;12773;50.162;8.548;2022-08-06T15:10:18;27.80;44.20
24638;DHT22;12773;50.162;8.548;2022-08-06T15:13:07;27.90;43.60
24638;DHT22;12773;50.162;8.548;2022-08-06T15:15:57;27.40;43.80
24638;DHT22;12773;50.162;8.548;2022-08-06T15:18:44;27.70;44.80
24638;DHT22;12773;50.162;8.548;2022-08-06T15:21:33;27.30;43.50
24638;DHT22;12773;50.162;8.548;2022-08-06T15:24:22;27.20;43.50
24638;DHT22;12773;50.162;8.548;2022-08-06T15:27:11;27.30;43.00
24638;DHT22;12773;50.162;8.548;2022-08-06T15:29:59;27.50;42.50
24638;DHT22;12773;50.162;8.548;2022-08-06T15:32:46;27.40;42.30
24638;DHT22;12773;50.162;8.548;2022-08-06T15:35:35;27.20;43.60
24638;DHT22;12773;50.162;8.548;2022-08-06T15:38:25;27.70;43.90
24638;DHT22;12773;50.162;8.548;2022-08-06T15:41:14;28.10;44.80
24638;DHT22;12773;50.162;8.548;2022-08-06T15:44:02;28.30;43.70
24638;DHT22;12773;50.162;8.548;2022-08-06T15:46:51;28.40;43.50
24638;DHT22;12773;50.162;8.548;2022-08-06T15:49:39;28.00;42.30
24638;DHT22;12773;50.162;8.548;2022-08-06T15:52:28;27.90;43.20
24638;DHT22;12773;50.162;8.548;2022-08-06T15:55:17;28.20;43.70
24638;DHT22;12773;50.162;8.548;2022-08-06T15:58:05;28.20;43.00
24638;DHT22;12773;50.162;8.548;2022-08-06T16:00:54;28.10;42.80
24638;DHT22;12773;50.162;8.548;2022-08-06T16:03:43;28.20;42.30
24638;DHT22;12773;50.162;8.548;2022-08-06T16:06:32;28.20;42.40
24638;DHT22;12773;50.162;8.548;2022-08-06T16:09:20;28.20;42.10
24638;DHT22;12773;50.162;8.548;2022-08-06T16:12:09;28.50;42.70
24638;DHT22;12773;50.162;8.548;2022-08-06T16:14:56;28.50;42.20
24638;DHT22;12773;50.162;8.548;2022-08-06T16:17:44;28.30;42.40
24638;DHT22;12773;50.162;8.548;2022-08-06T16:20:33;28.30;42.60
24638;DHT22;12773;50.162;8.548;2022-08-06T16:23:21;28.20;42.30
24638;DHT22;12773;50.162;8.548;2022-08-06T16:26:10;28.80;43.00
24638;DHT22;12773;50.162;8.548;2022-08-06T16:28:59;28.60;42.30
24638;DHT22;12773;50.162;8.548;2022-08-06T16:31:50;28.50;41.90
24638;DHT22;12773;50.162;8.548;2022-08-06T16:34:40;28.50;42.10
24638;DHT22;12773;50.162;8.548;2022-08-06T16:37:28;28.50;42.40
24638;DHT22;12773;50.162;8.548;2022-08-06T16:40:18;28.30;42.20
24638;DHT22;12773;50.162;8.548;2022-08-06T16:43:05;28.00;42.50
24638;DHT22;12773;50.162;8.548;2022-08-06T16:45:53;28.10;42.30
24638;DHT22;12773;50.162;8.548;2022-08-06T16:48:41;28.30;41.90
24638;DHT22;12773;50.162;8.548;2022-08-06T16:51:30;28.10;42.50
24638;DHT22;12773;50.162;8.548;2022-08-06T16:54:22;27.80;42.70
24638;DHT22;12773;50.162;8.548;2022-08-06T16:57:10;27.30;43.20
24638;DHT22;12773;50.162;8.548;2022-08-06T16:59:57;27.10;43.40
24638;DHT22;12773;50.162;8.548;2022-08-06T17:02:46;26.70;43.70
24638;DHT22;12773;50.162;8.548;2022-08-06T17:05:36;26.60;44.30
24638;DHT22;12773;50.162;8.548;2022-08-06T17:08:26;26.40;44.60
24638;DHT22;12773;50.162;8.548;2022-08-06T17:11:14;26.00;44.80
24638;DHT22;12773;50.162;8.548;2022-08-06T17:14:03;25.80;45.10
24638;DHT22;12773;50.162;8.548;2022-08-06T17:16:52;25.70;45.60
24638;DHT22;12773;50.162;8.548;2022-08-06T17:19:42;25.50;45.70
24638;DHT22;12773;50.162;8.548;2022-08-06T17:22:31;25.30;45.90
24638;DHT22;12773;50.162;8.548;2022-08-06T17:25:19;25.30;46.10
24638;DHT22;12773;50.162;8.548;2022-08-06T17:28:08;25.10;46.40
24638;DHT22;12773;50.162;8.548;2022-08-06T17:30:57;25.00;46.70
24638;DHT22;12773;50.162;8.548;2022-08-06T17:33:45;24.90;46.80
24638;DHT22;12773;50.162;8.548;2022-08-06T17:36:32;24.90;46.70
24638;DHT22;12773;50.162;8.548;2022-08-06T17:39:21;25.00;46.90
24638;DHT22;12773;50.162;8.548;2022-08-06T17:42:10;24.90;46.80
24638;DHT22;12773;50.162;8.548;2022-08-06T17:44:59;24.70;47.20
24638;DHT22;12773;50.162;8.548;2022-08-06T17:47:47;24.70;47.60
24638;DHT22;12773;50.162;8.548;2022-08-06T17:50:36;24.70;47.30
24638;DHT22;12773;50.162;8.548;2022-08-06T17:53:25;24.50;47.20
24638;DHT22;12773;50.162;8.548;2022-08-06T17:56:14;24.30;47.20
24638;DHT22;12773;50.162;8.548;2022-08-06T17:59:05;24.40;47.30
24638;DHT22;12773;50.162;8.548;2022-08-06T18:01:54;24.30;47.20
24638;DHT22;12773;50.162;8.548;2022-08-06T18:04:42;24.30;47.20
24638;DHT22;12773;50.162;8.548;2022-08-06T18:07:30;24.40;47.30
24638;DHT22;12773;50.162;8.548;2022-08-06T18:10:19;24.20;47.30
24638;DHT22;12773;50.162;8.548;2022-08-06T18:13:13;24.10;47.50
24638;DHT22;12773;50.162;8.548;2022-08-06T18:16:01;24.00;47.70
24638;DHT22;12773;50.162;8.548;2022-08-06T18:18:49;24.00;47.80
24638;DHT22;12773;50.162;8.548;2022-08-06T18:21:37;23.90;47.80
24638;DHT22;12773;50.162;8.548;2022-08-06T18:24:26;23.80;47.90
24638;DHT22;12773;50.162;8.548;2022-08-06T18:27:15;23.80;48.00
24638;DHT22;12773;50.162;8.548;2022-08-06T18:30:05;23.60;48.20
24638;DHT22;12773;50.162;8.548;2022-08-06T18:32:55;23.40;48.40
24638;DHT22;12773;50.162;8.548;2022-08-06T18:35:43;23.30;48.70
24638;DHT22;12773;50.162;8.548;2022-08-06T18:38:33;23.30;48.90
24638;DHT22;12773;50.162;8.548;2022-08-06T18:41:21;23.30;49.10
24638;DHT22;12773;50.162;8.548;2022-08-06T18:44:09;23.30;49.20
24638;DHT22;12773;50.162;8.548;2022-08-06T18:46:56;23.20;49.80
24638;DHT22;12773;50.162;8.548;2022-08-06T18:49:45;23.10;49.50
24638;DHT22;12773;50.162;8.548;2022-08-06T18:52:34;23.00;49.60
24638;DHT22;12773;50.162;8.548;2022-08-06T18:55:22;22.90;49.80
24638;DHT22;12773;50.162;8.548;2022-08-06T18:58:11;22.90;49.90
24638;DHT22;12773;50.162;8.548;2022-08-06T19:01:00;22.80;50.00